Estación Meteorológica Peña el Pijo (Robertgarden) [ 01/30/23 14:11:21 CET ]

Fecha Hora Presion(HPa) Temp (°C) Humedad % Rocio (°C) Viento ( m/s) Direccion Lluvia 1Hora(mm) Lluvia 24H(mm) LLuvia Total(mm)
2010-Jul-28 01:01:13 1016.500 17.9 70 12.4         130.53
2010-Jul-28 02:01:12 1016.400 16.2 74 11.6         130.53
2010-Jul-28 03:03:35 1016.500 15.2 75 10.8         130.53
2010-Jul-28 04:03:20 1016.100 14.4 76 10.2         130.53
2010-Jul-28 05:01:12 1016.100 13.4 77 9.4         130.53
2010-Jul-28 06:01:13 1016.300 12.8 80 9.4         130.53
2010-Jul-28 07:01:16 1016.500 11.9 81 8.8         130.53
2010-Jul-28 08:01:14 1016.400 12.8 80 9.4         130.53
2010-Jul-28 09:01:16 1016.300 19.8 60 11.5         130.53
2010-Jul-28 10:01:13 1016.400 25.9 41 11.7         130.53
2010-Jul-28 11:01:14 1016.100 31.4 31 12.2         130.53
2010-Jul-28 12:01:11 1016.000 34.3 26 11.8         130.53
2010-Jul-28 13:01:16 1015.800 35.6 25 12.3         130.53
2010-Jul-28 14:01:14 1015.500 35.9 23 11.3         130.53
2010-Jul-28 15:01:16 1014.800 36.4 19 8.9         130.53
2010-Jul-28 16:01:11 1014.500 36.4 20 9.9         130.53
2010-Jul-28 17:01:11 1014.400 35.0 21 9.3         130.53
2010-Jul-28 18:01:14 1014.100 33.4 25 10.5         130.53
2010-Jul-28 19:01:16 1014.100 31.4 28 10.6 2.3 NE     130.53
2010-Jul-28 20:01:14 1014.200 30.2 32 11.6         130.53
2010-Jul-28 21:01:11 1014.800 27.2 40 12.5         130.53
2010-Jul-28 22:01:14 1014.900 23.9 47 11.9         130.53
2010-Jul-28 23:01:13 1015.300 21.1 56 12.0         130.53

Temperatura Máxima:36°    Temperatura Mínima:11°
Presión Máxima:1016.500 Hpa    Presión Mínima:1014.100 Hpa


Volver